^^
Station Historical Data
Daily Summary for January 15, 2018 Units:  Both    English   Metric
« Previous Day
Next Day »
Daily Weekly Monthly Yearly Custom
  High: Low: Average:
Temperature: TemperatureF °F /  -17.8 °C 67.3 °F /  19.6 °C 78.9 °F /  26.1 °C
Dew Point: DewpointF °F /  -17.8 °C 41.5 °F /  5.3 °C 49.6 °F /  9.8 °C
Humidity: Humidity% 17% 39%
Wind Speed: WindSpeedMPHmph /  0km/h - 2.7mph /  4.3km/h
Wind Gust: WindSpeedGustMPHmph /  0km/h - -
Wind- - South
Pressure: PressureIn in /  0 hPa 29.58 in /  1001.6 hPa -
Precipitation: 0.00 in /  0 mm    
Historical Graphs
 
 
Tabular Data for January 15, 2018
Time Temperature Dew Point Pressure Wind Wind Speed Wind Gust Humidity Rainfall Rate (Hourly) solar Conditions
TemperatureF °F /  -17.8 °C DewpointF °F /  -17.8 °C PressureInin /  0hPa Calm     Humidity% HourlyPrecipInin /  0mm SolarRadiationWatts/m^2 W/m2 Conditions
00:05 73.2 °F /  22.9 °C 52.3 °F /  11.3 °C 29.74in /  1007hPa Calm   3.0mph /  4.8km/h 48% 0.00in /  0mm 0.0 W/m2
00:18 73.0 °F /  22.8 °C 53.2 °F /  11.8 °C 29.74in /  1007hPa Calm     50% 0.00in /  0mm 0.0 W/m2
00:23 72.9 °F /  22.7 °C 53.1 °F /  11.7 °C 29.73in /  1006.7hPa Calm   1.0mph /  1.6km/h 50% 0.00in /  0mm 0.0 W/m2
00:28 72.9 °F /  22.7 °C 53.1 °F /  11.7 °C 29.73in /  1006.7hPa Calm     50% 0.00in /  0mm 0.0 W/m2
00:33 72.7 °F /  22.6 °C 52.9 °F /  11.6 °C 29.73in /  1006.7hPa Calm     50% 0.00in /  0mm 0.0 W/m2
00:38 72.5 °F /  22.5 °C 52.9 °F /  11.6 °C 29.73in /  1006.7hPa Calm   1.0mph /  1.6km/h 50% 0.00in /  0mm 0.0 W/m2
00:43 72.3 °F /  22.4 °C 53.2 °F /  11.8 °C 29.72in /  1006.3hPa Calm     51% 0.00in /  0mm 0.0 W/m2
00:48 72.1 °F /  22.3 °C 53.6 °F /  12 °C 29.72in /  1006.3hPa Calm     52% 0.00in /  0mm 0.0 W/m2
00:53 71.8 °F /  22.1 °C 53.8 °F /  12.1 °C 29.72in /  1006.3hPa Calm     53% 0.00in /  0mm 0.0 W/m2
00:58 71.6 °F /  22 °C 53.6 °F /  12 °C 29.72in /  1006.3hPa Calm     53% 0.00in /  0mm 0.0 W/m2
01:03 71.4 °F /  21.9 °C 53.4 °F /  11.9 °C 29.72in /  1006.3hPa Calm   1.0mph /  1.6km/h 53% 0.00in /  0mm 0.0 W/m2
01:09 71.1 °F /  21.7 °C 53.6 °F /  12 °C 29.72in /  1006.3hPa Calm     54% 0.00in /  0mm 0.0 W/m2
01:14 70.9 °F /  21.6 °C 54.0 °F /  12.2 °C 29.72in /  1006.3hPa Calm     55% 0.00in /  0mm 0.0 W/m2
01:23 70.5 °F /  21.4 °C 54.1 °F /  12.3 °C 29.71in /  1006hPa Calm   1.0mph /  1.6km/h 56% 0.00in /  0mm 0.0 W/m2
01:28 70.3 °F /  21.3 °C 54.0 °F /  12.2 °C 29.71in /  1006hPa Calm     56% 0.00in /  0mm 0.0 W/m2
01:38 69.6 °F /  20.9 °C 53.8 °F /  12.1 °C 29.71in /  1006hPa SSE 0.9mph /  1.4km/h 3.0mph /  4.8km/h 57% 0.00in /  0mm 0.0 W/m2
01:44 69.4 °F /  20.8 °C 54.0 °F /  12.2 °C 29.71in /  1006hPa South 2.9mph /  4.7km/h 4.0mph /  6.4km/h 58% 0.00in /  0mm 0.0 W/m2
01:49 69.3 °F /  20.7 °C 53.8 °F /  12.1 °C 29.71in /  1006hPa South 0.9mph /  1.4km/h 2.0mph /  3.2km/h 58% 0.00in /  0mm 0.0 W/m2
01:54 69.3 °F /  20.7 °C 54.3 °F /  12.4 °C 29.70in /  1005.6hPa Calm   2.0mph /  3.2km/h 59% 0.00in /  0mm 0.0 W/m2
01:59 69.3 °F /  20.7 °C 54.3 °F /  12.4 °C 29.70in /  1005.6hPa SSE 2.0mph /  3.2km/h 3.0mph /  4.8km/h 59% 0.00in /  0mm 0.0 W/m2
02:05 69.1 °F /  20.6 °C 54.1 °F /  12.3 °C 29.70in /  1005.6hPa SE 2.9mph /  4.7km/h 4.0mph /  6.4km/h 59% 0.00in /  0mm 0.0 W/m2
02:10 69.1 °F /  20.6 °C 54.1 °F /  12.3 °C 29.70in /  1005.6hPa Calm   2.0mph /  3.2km/h 59% 0.00in /  0mm 0.0 W/m2
02:30 69.1 °F /  20.6 °C 54.1 °F /  12.3 °C 29.69in /  1005.3hPa Calm   3.0mph /  4.8km/h 59% 0.00in /  0mm 0.0 W/m2
02:36 69.1 °F /  20.6 °C 54.1 °F /  12.3 °C 29.69in /  1005.3hPa Calm   1.0mph /  1.6km/h 59% 0.00in /  0mm 0.0 W/m2
02:44 69.1 °F /  20.6 °C 54.1 °F /  12.3 °C 29.68in /  1005hPa Calm     59% 0.00in /  0mm 0.0 W/m2
02:49 69.1 °F /  20.6 °C 54.1 °F /  12.3 °C 29.68in /  1005hPa Calm     59% 0.00in /  0mm 0.0 W/m2
02:54 69.1 °F /  20.6 °C 54.1 °F /  12.3 °C 29.68in /  1005hPa Calm     59% 0.00in /  0mm 0.0 W/m2
02:59 69.1 °F /  20.6 °C 54.7 °F /  12.6 °C 29.68in /  1005hPa Calm   2.0mph /  3.2km/h 60% 0.00in /  0mm 0.0 W/m2
03:04 69.1 °F /  20.6 °C 55.0 °F /  12.8 °C 29.68in /  1005hPa Calm   1.0mph /  1.6km/h 61% 0.00in /  0mm 0.0 W/m2
03:09 68.9 °F /  20.5 °C 54.5 °F /  12.5 °C 29.68in /  1005hPa Calm   1.0mph /  1.6km/h 60% 0.00in /  0mm 0.0 W/m2
03:14 68.9 °F /  20.5 °C 54.0 °F /  12.2 °C 29.68in /  1005hPa SE 0.9mph /  1.4km/h 1.0mph /  1.6km/h 59% 0.00in /  0mm 0.0 W/m2
03:19 69.1 °F /  20.6 °C 54.1 °F /  12.3 °C 29.68in /  1005hPa Calm     59% 0.00in /  0mm 0.0 W/m2
03:30 68.9 °F /  20.5 °C 54.9 °F /  12.7 °C 29.67in /  1004.6hPa Calm     61% 0.00in /  0mm 0.0 W/m2
03:35 68.9 °F /  20.5 °C 54.9 °F /  12.7 °C 29.67in /  1004.6hPa Calm     61% 0.00in /  0mm 0.0 W/m2
03:40 68.7 °F /  20.4 °C 54.7 °F /  12.6 °C 29.67in /  1004.6hPa Calm     61% 0.00in /  0mm 0.0 W/m2
03:47 68.7 °F /  20.4 °C 54.7 °F /  12.6 °C 29.67in /  1004.6hPa Calm     61% 0.00in /  0mm 0.0 W/m2
03:56 68.7 °F /  20.4 °C 54.3 °F /  12.4 °C 29.67in /  1004.6hPa Calm   1.0mph /  1.6km/h 60% 0.00in /  0mm 0.0 W/m2
04:01 68.7 °F /  20.4 °C 54.7 °F /  12.6 °C 29.67in /  1004.6hPa Calm   3.0mph /  4.8km/h 61% 0.00in /  0mm 0.0 W/m2
04:06 68.7 °F /  20.4 °C 54.7 °F /  12.6 °C 29.66in /  1004.3hPa Calm   2.0mph /  3.2km/h 61% 0.00in /  0mm 0.0 W/m2
04:11 68.9 °F /  20.5 °C 54.9 °F /  12.7 °C 29.67in /  1004.6hPa Calm     61% 0.00in /  0mm 0.0 W/m2
04:16 68.9 °F /  20.5 °C 54.9 °F /  12.7 °C 29.66in /  1004.3hPa Calm     61% 0.00in /  0mm 0.0 W/m2
04:22 68.9 °F /  20.5 °C 54.9 °F /  12.7 °C 29.66in /  1004.3hPa Calm     61% 0.00in /  0mm 0.0 W/m2
04:28 69.1 °F /  20.6 °C 54.7 °F /  12.6 °C 29.67in /  1004.6hPa Calm     60% 0.00in /  0mm 0.0 W/m2
04:33 68.9 °F /  20.5 °C 54.5 °F /  12.5 °C 29.66in /  1004.3hPa Calm     60% 0.00in /  0mm 0.0 W/m2
04:38 68.7 °F /  20.4 °C 54.7 °F /  12.6 °C 29.66in /  1004.3hPa Calm     61% 0.00in /  0mm 0.0 W/m2
04:43 68.7 °F /  20.4 °C 54.3 °F /  12.4 °C 29.66in /  1004.3hPa Calm     60% 0.00in /  0mm 0.0 W/m2
04:48 68.7 °F /  20.4 °C 54.7 °F /  12.6 °C 29.66in /  1004.3hPa Calm     61% 0.00in /  0mm 0.0 W/m2
04:53 68.5 °F /  20.3 °C 54.5 °F /  12.5 °C 29.66in /  1004.3hPa Calm     61% 0.00in /  0mm 0.0 W/m2
04:58 68.5 °F /  20.3 °C 54.5 °F /  12.5 °C 29.66in /  1004.3hPa Calm     61% 0.00in /  0mm 0.0 W/m2
05:03 68.4 °F /  20.2 °C 54.9 °F /  12.7 °C 29.66in /  1004.3hPa Calm     62% 0.00in /  0mm 0.0 W/m2
05:08 68.4 °F /  20.2 °C 54.9 °F /  12.7 °C 29.66in /  1004.3hPa Calm     62% 0.00in /  0mm 0.0 W/m2
05:13 68.2 °F /  20.1 °C 54.7 °F /  12.6 °C 29.66in /  1004.3hPa Calm     62% 0.00in /  0mm 0.0 W/m2
05:19 68.0 °F /  20 °C 54.9 °F /  12.7 °C 29.66in /  1004.3hPa Calm     63% 0.00in /  0mm 0.0 W/m2
05:24 67.8 °F /  19.9 °C 55.2 °F /  12.9 °C 29.66in /  1004.3hPa Calm     64% 0.00in /  0mm 0.0 W/m2
05:30 67.6 °F /  19.8 °C 55.0 °F /  12.8 °C 29.67in /  1004.6hPa Calm     64% 0.00in /  0mm 0.0 W/m2
05:41 67.5 °F /  19.7 °C 54.5 °F /  12.5 °C 29.67in /  1004.6hPa Calm     63% 0.00in /  0mm 0.0 W/m2
05:46 67.3 °F /  19.6 °C 53.4 °F /  11.9 °C 29.67in /  1004.6hPa Calm   3.0mph /  4.8km/h 61% 0.00in /  0mm 0.0 W/m2
05:51 67.5 °F /  19.7 °C 53.1 °F /  11.7 °C 29.67in /  1004.6hPa SE 0.9mph /  1.4km/h 3.0mph /  4.8km/h 60% 0.00in /  0mm 0.0 W/m2
05:56 67.6 °F /  19.8 °C 53.2 °F /  11.8 °C 29.67in /  1004.6hPa SSE 4.9mph /  7.9km/h 6.0mph /  9.7km/h 60% 0.00in /  0mm 0.0 W/m2
06:01 67.8 °F /  19.9 °C 53.4 °F /  11.9 °C 29.67in /  1004.6hPa SE 0.9mph /  1.4km/h 3.0mph /  4.8km/h 60% 0.00in /  0mm 0.0 W/m2
06:06 68.0 °F /  20 °C 53.6 °F /  12 °C 29.67in /  1004.6hPa Calm   1.0mph /  1.6km/h 60% 0.00in /  0mm 0.0 W/m2
06:26 68.4 °F /  20.2 °C 52.5 °F /  11.4 °C 29.67in /  1004.6hPa SSE 0.9mph /  1.4km/h 2.0mph /  3.2km/h 57% 0.00in /  0mm 0.0 W/m2
06:36 68.5 °F /  20.3 °C 52.2 °F /  11.2 °C 29.67in /  1004.6hPa SSW 2.9mph /  4.7km/h 3.0mph /  4.8km/h 56% 0.00in /  0mm 18.0 W/m2
06:42 69.1 °F /  20.6 °C 52.2 °F /  11.2 °C 29.68in /  1005hPa SSW 4.0mph /  6.4km/h 4.0mph /  6.4km/h 55% 0.00in /  0mm 26.0 W/m2
06:47 69.4 °F /  20.8 °C 51.6 °F /  10.9 °C 29.68in /  1005hPa South 0.9mph /  1.4km/h 4.0mph /  6.4km/h 53% 0.00in /  0mm 23.0 W/m2
06:52 69.8 °F /  21 °C 52.0 °F /  11.1 °C 29.68in /  1005hPa SSW 2.9mph /  4.7km/h 3.0mph /  4.8km/h 53% 0.00in /  0mm 25.0 W/m2
06:57 70.2 °F /  21.2 °C 51.8 °F /  11 °C 29.68in /  1005hPa SE 2.0mph /  3.2km/h 4.0mph /  6.4km/h 52% 0.00in /  0mm 26.0 W/m2
07:02 70.3 °F /  21.3 °C 51.8 °F /  11 °C 29.69in /  1005.3hPa SW 2.0mph /  3.2km/h 5.0mph /  8km/h 52% 0.00in /  0mm 32.0 W/m2
07:08 70.3 °F /  21.3 °C 51.8 °F /  11 °C 29.69in /  1005.3hPa SE 0.9mph /  1.4km/h 3.0mph /  4.8km/h 52% 0.00in /  0mm 39.0 W/m2
07:13 70.5 °F /  21.4 °C 50.9 °F /  10.5 °C 29.69in /  1005.3hPa South 2.0mph /  3.2km/h 6.0mph /  9.7km/h 50% 0.00in /  0mm 46.0 W/m2
07:18 70.9 °F /  21.6 °C 51.3 °F /  10.7 °C 29.70in /  1005.6hPa SE 2.0mph /  3.2km/h 4.0mph /  6.4km/h 50% 0.00in /  0mm 60.0 W/m2
07:23 71.1 °F /  21.7 °C 51.4 °F /  10.8 °C 29.70in /  1005.6hPa Calm   2.0mph /  3.2km/h 50% 0.00in /  0mm 69.0 W/m2
07:28 71.2 °F /  21.8 °C 51.6 °F /  10.9 °C 29.70in /  1005.6hPa SE 0.9mph /  1.4km/h 4.0mph /  6.4km/h 50% 0.00in /  0mm 79.0 W/m2
07:33 71.2 °F /  21.8 °C 51.1 °F /  10.6 °C 29.70in /  1005.6hPa Calm   5.0mph /  8km/h 49% 0.00in /  0mm 98.0 W/m2
07:38 71.4 °F /  21.9 °C 52.9 °F /  11.6 °C 29.70in /  1005.6hPa Calm   2.0mph /  3.2km/h 52% 0.00in /  0mm 98.0 W/m2
07:43 71.8 °F /  22.1 °C 52.2 °F /  11.2 °C 29.70in /  1005.6hPa Calm   1.0mph /  1.6km/h 50% 0.00in /  0mm 90.0 W/m2
07:48 72.0 °F /  22.2 °C 51.8 °F /  11 °C 29.70in /  1005.6hPa South 0.9mph /  1.4km/h 6.0mph /  9.7km/h 49% 0.00in /  0mm 107.0 W/m2
07:54 72.3 °F /  22.4 °C 52.7 °F /  11.5 °C 29.70in /  1005.6hPa Calm   3.0mph /  4.8km/h 50% 0.00in /  0mm 109.0 W/m2
07:59 72.5 °F /  22.5 °C 52.3 °F /  11.3 °C 29.71in /  1006hPa ESE 2.0mph /  3.2km/h 5.0mph /  8km/h 49% 0.00in /  0mm 169.0 W/m2
08:04 72.7 °F /  22.6 °C 51.8 °F /  11 °C 29.71in /  1006hPa Calm   4.0mph /  6.4km/h 48% 0.00in /  0mm 158.0 W/m2
08:15 73.0 °F /  22.8 °C 52.2 °F /  11.2 °C 29.71in /  1006hPa SSW 2.9mph /  4.7km/h 6.0mph /  9.7km/h 48% 0.00in /  0mm 294.0 W/m2
08:20 73.6 °F /  23.1 °C 52.2 °F /  11.2 °C 29.71in /  1006hPa ESE 2.0mph /  3.2km/h 8.0mph /  12.9km/h 47% 0.00in /  0mm 450.0 W/m2
08:25 73.8 °F /  23.2 °C 51.6 °F /  10.9 °C 29.71in /  1006hPa SE 6.9mph /  11.1km/h 10.0mph /  16.1km/h 46% 0.00in /  0mm 383.0 W/m2
08:30 74.1 °F /  23.4 °C 52.0 °F /  11.1 °C 29.70in /  1005.6hPa Calm   5.0mph /  8km/h 46% 0.00in /  0mm 476.0 W/m2
08:35 74.3 °F /  23.5 °C 52.2 °F /  11.2 °C 29.70in /  1005.6hPa SSE 2.0mph /  3.2km/h 7.0mph /  11.3km/h 46% 0.00in /  0mm 232.0 W/m2
08:40 74.5 °F /  23.6 °C 51.8 °F /  11 °C 29.70in /  1005.6hPa South 2.9mph /  4.7km/h 10.0mph /  16.1km/h 45% 0.00in /  0mm 364.0 W/m2
08:45 74.7 °F /  23.7 °C 51.3 °F /  10.7 °C 29.70in /  1005.6hPa SSW 6.0mph /  9.7km/h 10.0mph /  16.1km/h 44% 0.00in /  0mm 529.0 W/m2
08:51 74.7 °F /  23.7 °C 50.7 °F /  10.4 °C 29.70in /  1005.6hPa SE 4.0mph /  6.4km/h 20.0mph /  32.2km/h 43% 0.00in /  0mm 216.0 W/m2
08:56 74.8 °F /  23.8 °C 49.6 °F /  9.8 °C 29.70in /  1005.6hPa SE 2.9mph /  4.7km/h 14.0mph /  22.5km/h 41% 0.00in /  0mm 554.0 W/m2
09:03 75.4 °F /  24.1 °C 49.5 °F /  9.7 °C 29.70in /  1005.6hPa SSE 2.0mph /  3.2km/h 11.0mph /  17.7km/h 40% 0.00in /  0mm 388.0 W/m2
09:08 75.6 °F /  24.2 °C 48.2 °F /  9 °C 29.70in /  1005.6hPa ESE 6.0mph /  9.7km/h 18.0mph /  29km/h 38% 0.00in /  0mm 443.0 W/m2
09:13 75.9 °F /  24.4 °C 47.8 °F /  8.8 °C 29.70in /  1005.6hPa SSE 6.0mph /  9.7km/h 16.0mph /  25.7km/h 37% 0.00in /  0mm 327.0 W/m2
09:18 76.3 °F /  24.6 °C 46.6 °F /  8.1 °C 29.69in /  1005.3hPa SSE 2.9mph /  4.7km/h 15.0mph /  24.1km/h 35% 0.00in /  0mm 438.0 W/m2
09:23 76.6 °F /  24.8 °C 46.2 °F /  7.9 °C 29.70in /  1005.6hPa SE 8.1mph /  13km/h 16.0mph /  25.7km/h 34% 0.00in /  0mm 686.0 W/m2
09:28 77.4 °F /  25.2 °C 46.0 °F /  7.8 °C 29.69in /  1005.3hPa SE 6.9mph /  11.1km/h 11.0mph /  17.7km/h 33% 0.00in /  0mm 756.0 W/m2
09:33 78.3 °F /  25.7 °C 46.8 °F /  8.2 °C 29.69in /  1005.3hPa SE 6.9mph /  11.1km/h 12.0mph /  19.3km/h 33% 0.00in /  0mm 738.0 W/m2
09:41 79.2 °F /  26.2 °C 46.8 °F /  8.2 °C 29.70in /  1005.6hPa ESE 8.1mph /  13km/h 22.0mph /  35.4km/h 32% 0.00in /  0mm 735.0 W/m2
09:47 79.3 °F /  26.3 °C 46.0 °F /  7.8 °C 29.70in /  1005.6hPa South 19.9mph /  32km/h 20.0mph /  32.2km/h 31% 0.00in /  0mm 635.0 W/m2
09:57 79.2 °F /  26.2 °C 45.1 °F /  7.3 °C 29.70in /  1005.6hPa SSW 8.9mph /  14.3km/h 16.0mph /  25.7km/h 30% 0.00in /  0mm 487.0 W/m2
10:02 79.3 °F /  26.3 °C 44.2 °F /  6.8 °C 29.69in /  1005.3hPa SSW 19.9mph /  32km/h 20.0mph /  32.2km/h 29% 0.00in /  0mm 788.0 W/m2
10:07 79.9 °F /  26.6 °C 45.7 °F /  7.6 °C 29.70in /  1005.6hPa SE 15.0mph /  24.1km/h 16.0mph /  25.7km/h 30% 0.00in /  0mm 812.0 W/m2
10:18 81.0 °F /  27.2 °C 44.8 °F /  7.1 °C 29.70in /  1005.6hPa SSE 4.0mph /  6.4km/h 15.0mph /  24.1km/h 28% 0.00in /  0mm 835.0 W/m2
10:23 81.3 °F /  27.4 °C 44.1 °F /  6.7 °C 29.70in /  1005.6hPa SSE 6.9mph /  11.1km/h 14.0mph /  22.5km/h 27% 0.00in /  0mm 833.0 W/m2
10:28 81.7 °F /  27.6 °C 44.4 °F /  6.9 °C 29.70in /  1005.6hPa SE 6.9mph /  11.1km/h 14.0mph /  22.5km/h 27% 0.00in /  0mm 779.0 W/m2
10:33 81.9 °F /  27.7 °C 43.7 °F /  6.5 °C 29.71in /  1006hPa SSE 11.0mph /  17.7km/h 18.0mph /  29km/h 26% 0.00in /  0mm 868.0 W/m2
10:39 82.0 °F /  27.8 °C 43.7 °F /  6.5 °C 29.70in /  1005.6hPa South 4.0mph /  6.4km/h 13.0mph /  20.9km/h 26% 0.00in /  0mm 874.0 W/m2
10:44 82.2 °F /  27.9 °C 43.9 °F /  6.6 °C 29.70in /  1005.6hPa SE 6.0mph /  9.7km/h 12.0mph /  19.3km/h 26% 0.00in /  0mm 886.0 W/m2
10:49 82.8 °F /  28.2 °C 44.4 °F /  6.9 °C 29.70in /  1005.6hPa SSE 11.0mph /  17.7km/h 17.0mph /  27.4km/h 26% 0.00in /  0mm 898.0 W/m2
10:54 82.9 °F /  28.3 °C 44.6 °F /  7 °C 29.71in /  1006hPa SE 4.9mph /  7.9km/h 13.0mph /  20.9km/h 26% 0.00in /  0mm 907.0 W/m2
10:59 83.7 °F /  28.7 °C 44.1 °F /  6.7 °C 29.71in /  1006hPa SE 10.1mph /  16.3km/h 14.0mph /  22.5km/h 25% 0.00in /  0mm 918.0 W/m2
11:04 83.8 °F /  28.8 °C 44.2 °F /  6.8 °C 29.71in /  1006hPa East 6.0mph /  9.7km/h 15.0mph /  24.1km/h 25% 0.00in /  0mm 930.0 W/m2
11:09 84.2 °F /  29 °C 44.6 °F /  7 °C 29.71in /  1006hPa SSW 8.1mph /  13km/h 13.0mph /  20.9km/h 25% 0.00in /  0mm 940.0 W/m2
11:14 84.6 °F /  29.2 °C 43.9 °F /  6.6 °C 29.71in /  1006hPa SE 2.9mph /  4.7km/h 11.0mph /  17.7km/h 24% 0.00in /  0mm 951.0 W/m2
11:19 84.9 °F /  29.4 °C 44.1 °F /  6.7 °C 29.71in /  1006hPa SSE 8.9mph /  14.3km/h 16.0mph /  25.7km/h 24% 0.00in /  0mm 962.0 W/m2
11:24 84.9 °F /  29.4 °C 44.1 °F /  6.7 °C 29.71in /  1006hPa ESE 10.1mph /  16.3km/h 13.0mph /  20.9km/h 24% 0.00in /  0mm 970.0 W/m2
11:30 84.9 °F /  29.4 °C 44.1 °F /  6.7 °C 29.71in /  1006hPa SSE 8.1mph /  13km/h 12.0mph /  19.3km/h 24% 0.00in /  0mm 977.0 W/m2
11:39 85.3 °F /  29.6 °C 44.4 °F /  6.9 °C 29.71in /  1006hPa South 8.9mph /  14.3km/h 13.0mph /  20.9km/h 24% 0.00in /  0mm 988.0 W/m2
11:46 85.8 °F /  29.9 °C 44.8 °F /  7.1 °C 29.71in /  1006hPa South 8.1mph /  13km/h 13.0mph /  20.9km/h 24% 0.00in /  0mm 1000.0 W/m2
11:51 86.4 °F /  30.2 °C 45.3 °F /  7.4 °C 29.71in /  1006hPa SSE 6.0mph /  9.7km/h 11.0mph /  17.7km/h 24% 0.00in /  0mm 1004.0 W/m2
11:56 86.7 °F /  30.4 °C 45.7 °F /  7.6 °C 29.71in /  1006hPa SSE 8.1mph /  13km/h 16.0mph /  25.7km/h 24% 0.00in /  0mm 1023.0 W/m2
12:01 87.3 °F /  30.7 °C 45.0 °F /  7.2 °C 29.71in /  1006hPa East 4.0mph /  6.4km/h 11.0mph /  17.7km/h 23% 0.00in /  0mm 1027.0 W/m2
12:07 87.6 °F /  30.9 °C 46.4 °F /  8 °C 29.70in /  1005.6hPa SE 4.9mph /  7.9km/h 8.0mph /  12.9km/h 24% 0.00in /  0mm 1032.0 W/m2
12:12 88.2 °F /  31.2 °C 45.7 °F /  7.6 °C 29.70in /  1005.6hPa SE 4.0mph /  6.4km/h 13.0mph /  20.9km/h 23% 0.00in /  0mm 1049.0 W/m2
12:17 88.3 °F /  31.3 °C 45.9 °F /  7.7 °C 29.70in /  1005.6hPa SSW 4.0mph /  6.4km/h 11.0mph /  17.7km/h 23% 0.00in /  0mm 1055.0 W/m2
12:22 88.9 °F /  31.6 °C 46.2 °F /  7.9 °C 29.70in /  1005.6hPa South 8.9mph /  14.3km/h 11.0mph /  17.7km/h 23% 0.00in /  0mm 1071.0 W/m2
12:27 89.2 °F /  31.8 °C 46.6 °F /  8.1 °C 29.70in /  1005.6hPa ESE 4.9mph /  7.9km/h 11.0mph /  17.7km/h 23% 0.00in /  0mm 1081.0 W/m2
12:36 89.8 °F /  32.1 °C 45.9 °F /  7.7 °C 29.70in /  1005.6hPa SE 4.0mph /  6.4km/h 10.0mph /  16.1km/h 22% 0.00in /  0mm 1130.0 W/m2
12:41 90.1 °F /  32.3 °C 47.3 °F /  8.5 °C 29.70in /  1005.6hPa ESE 6.0mph /  9.7km/h 7.0mph /  11.3km/h 23% 0.00in /  0mm 1097.0 W/m2
12:46 90.7 °F /  32.6 °C 46.6 °F /  8.1 °C 29.69in /  1005.3hPa SW 0.9mph /  1.4km/h 10.0mph /  16.1km/h 22% 0.00in /  0mm 1252.0 W/m2
12:51 91.2 °F /  32.9 °C 45.9 °F /  7.7 °C 29.69in /  1005.3hPa NE 12.1mph /  19.5km/h 13.0mph /  20.9km/h 21% 0.00in /  0mm 793.0 W/m2
12:57 91.2 °F /  32.9 °C 45.9 °F /  7.7 °C 29.69in /  1005.3hPa ESE 6.9mph /  11.1km/h 10.0mph /  16.1km/h 21% 0.00in /  0mm 1071.0 W/m2
13:02 91.0 °F /  32.8 °C 45.7 °F /  7.6 °C 29.69in /  1005.3hPa East 2.0mph /  3.2km/h 9.0mph /  14.5km/h 21% 0.00in /  0mm 738.0 W/m2
13:07 90.7 °F /  32.6 °C 46.6 °F /  8.1 °C 29.69in /  1005.3hPa NE 6.9mph /  11.1km/h 13.0mph /  20.9km/h 22% 0.00in /  0mm 533.0 W/m2
13:12 90.1 °F /  32.3 °C 46.2 °F /  7.9 °C 29.69in /  1005.3hPa SE 6.0mph /  9.7km/h 11.0mph /  17.7km/h 22% 0.00in /  0mm 726.0 W/m2
13:17 90.1 °F /  32.3 °C 46.2 °F /  7.9 °C 29.69in /  1005.3hPa ESE 8.1mph /  13km/h 12.0mph /  19.3km/h 22% 0.00in /  0mm 540.0 W/m2
13:22 89.8 °F /  32.1 °C 44.6 °F /  7 °C 29.69in /  1005.3hPa South 6.0mph /  9.7km/h 10.0mph /  16.1km/h 21% 0.00in /  0mm 661.0 W/m2
13:33 89.1 °F /  31.7 °C 45.3 °F /  7.4 °C 29.69in /  1005.3hPa ESE 8.1mph /  13km/h 8.1mph /  13km/h 22% 0.00in /  0mm 582.0 W/m2
13:38 89.1 °F /  31.7 °C 46.4 °F /  8 °C 29.68in /  1005hPa NE 4.0mph /  6.4km/h 10.0mph /  16.1km/h 23% 0.00in /  0mm 582.0 W/m2
13:44 89.1 °F /  31.7 °C 45.3 °F /  7.4 °C 29.68in /  1005hPa East 0.9mph /  1.4km/h 7.0mph /  11.3km/h 22% 0.00in /  0mm 520.0 W/m2
13:51 89.2 °F /  31.8 °C 44.2 °F /  6.8 °C 29.68in /  1005hPa SSE 0.9mph /  1.4km/h 5.0mph /  8km/h 21% 0.00in /  0mm 744.0 W/m2
13:56 89.6 °F /  32 °C 45.7 °F /  7.6 °C 29.68in /  1005hPa ESE 4.9mph /  7.9km/h 6.0mph /  9.7km/h 22% 0.00in /  0mm 385.0 W/m2
14:01 89.8 °F /  32.1 °C 45.9 °F /  7.7 °C 29.68in /  1005hPa Calm   4.0mph /  6.4km/h 22% 0.00in /  0mm 334.0 W/m2
14:06 89.8 °F /  32.1 °C 45.9 °F /  7.7 °C 29.67in /  1004.6hPa Calm   4.0mph /  6.4km/h 22% 0.00in /  0mm 306.0 W/m2
14:11 89.6 °F /  32 °C 44.4 °F /  6.9 °C 29.67in /  1004.6hPa Calm   6.0mph /  9.7km/h 21% 0.00in /  0mm 301.0 W/m2
14:16 89.2 °F /  31.8 °C 44.2 °F /  6.8 °C 29.67in /  1004.6hPa SE 2.0mph /  3.2km/h 2.0mph /  3.2km/h 21% 0.00in /  0mm 311.0 W/m2
14:21 89.1 °F /  31.7 °C 45.3 °F /  7.4 °C 29.67in /  1004.6hPa SE 4.0mph /  6.4km/h 7.0mph /  11.3km/h 22% 0.00in /  0mm 366.0 W/m2
14:30 89.1 °F /  31.7 °C 45.3 °F /  7.4 °C 29.67in /  1004.6hPa ESE 0.9mph /  1.4km/h 6.0mph /  9.7km/h 22% 0.00in /  0mm 1167.0 W/m2
14:40 90.1 °F /  32.3 °C 45.0 °F /  7.2 °C 29.66in /  1004.3hPa Calm   5.0mph /  8km/h 21% 0.00in /  0mm 554.0 W/m2
14:45 90.3 °F /  32.4 °C 45.1 °F /  7.3 °C 29.66in /  1004.3hPa SSE 2.0mph /  3.2km/h 9.0mph /  14.5km/h 21% 0.00in /  0mm 445.0 W/m2
14:51 90.3 °F /  32.4 °C 45.1 °F /  7.3 °C 29.65in /  1003.9hPa South 4.0mph /  6.4km/h 7.0mph /  11.3km/h 21% 0.00in /  0mm 482.0 W/m2
14:56 90.7 °F /  32.6 °C 45.3 °F /  7.4 °C 29.65in /  1003.9hPa Calm   8.0mph /  12.9km/h 21% 0.00in /  0mm 1167.0 W/m2
15:02 91.4 °F /  33 °C 44.8 °F /  7.1 °C 29.65in /  1003.9hPa SE 4.0mph /  6.4km/h 9.0mph /  14.5km/h 20% 0.00in /  0mm 1086.0 W/m2
15:07 91.9 °F /  33.3 °C 45.1 °F /  7.3 °C 29.65in /  1003.9hPa WSW 4.0mph /  6.4km/h 5.0mph /  8km/h 20% 0.00in /  0mm 439.0 W/m2
15:13 91.8 °F /  33.2 °C 43.7 °F /  6.5 °C 29.64in /  1003.6hPa East 2.9mph /  4.7km/h 4.0mph /  6.4km/h 19% 0.00in /  0mm 954.0 W/m2
15:23 91.9 °F /  33.3 °C 43.7 °F /  6.5 °C 29.64in /  1003.6hPa SSW 2.9mph /  4.7km/h 8.0mph /  12.9km/h 19% 0.00in /  0mm 881.0 W/m2
15:33 91.8 °F /  33.2 °C 45.0 °F /  7.2 °C 29.63in /  1003.3hPa West 2.0mph /  3.2km/h 8.0mph /  12.9km/h 20% 0.00in /  0mm 842.0 W/m2
15:38 92.1 °F /  33.4 °C 43.9 °F /  6.6 °C 29.62in /  1002.9hPa SSW 2.9mph /  4.7km/h 4.0mph /  6.4km/h 19% 0.00in /  0mm 824.0 W/m2
15:43 92.8 °F /  33.8 °C 45.9 °F /  7.7 °C 29.62in /  1002.9hPa West 2.9mph /  4.7km/h 3.0mph /  4.8km/h 20% 0.00in /  0mm 812.0 W/m2
15:48 93.6 °F /  34.2 °C 45.1 °F /  7.3 °C 29.62in /  1002.9hPa SW 2.0mph /  3.2km/h 7.0mph /  11.3km/h 19% 0.00in /  0mm 816.0 W/m2
15:53 93.6 °F /  34.2 °C 43.7 °F /  6.5 °C 29.61in /  1002.6hPa WSW 2.9mph /  4.7km/h 10.0mph /  16.1km/h 18% 0.00in /  0mm 810.0 W/m2
15:58 93.4 °F /  34.1 °C 45.0 °F /  7.2 °C 29.61in /  1002.6hPa South 4.9mph /  7.9km/h 8.0mph /  12.9km/h 19% 0.00in /  0mm 800.0 W/m2
16:04 93.0 °F /  33.9 °C 44.6 °F /  7 °C 29.60in /  1002.3hPa SW 0.9mph /  1.4km/h 5.0mph /  8km/h 19% 0.00in /  0mm 786.0 W/m2
16:09 93.6 °F /  34.2 °C 43.7 °F /  6.5 °C 29.60in /  1002.3hPa SW 2.0mph /  3.2km/h 2.0mph /  3.2km/h 18% 0.00in /  0mm 798.0 W/m2
16:14 94.3 °F /  34.6 °C 44.2 °F /  6.8 °C 29.60in /  1002.3hPa Calm   5.0mph /  8km/h 18% 0.00in /  0mm 796.0 W/m2
16:19 94.6 °F /  34.8 °C 44.6 °F /  7 °C 29.60in /  1002.3hPa SE 4.0mph /  6.4km/h 12.0mph /  19.3km/h 18% 0.00in /  0mm 772.0 W/m2
16:24 94.6 °F /  34.8 °C 44.6 °F /  7 °C 29.60in /  1002.3hPa SW 2.9mph /  4.7km/h 4.0mph /  6.4km/h 18% 0.00in /  0mm 738.0 W/m2
16:29 94.5 °F /  34.7 °C 44.4 °F /  6.9 °C 29.60in /  1002.3hPa SSE 4.0mph /  6.4km/h 7.0mph /  11.3km/h 18% 0.00in /  0mm 670.0 W/m2
16:34 94.5 °F /  34.7 °C 43.0 °F /  6.1 °C 29.59in /  1001.9hPa South 2.9mph /  4.7km/h 7.0mph /  11.3km/h 17% 0.00in /  0mm 703.0 W/m2
16:45 94.8 °F /  34.9 °C 43.2 °F /  6.2 °C 29.59in /  1001.9hPa East 2.9mph /  4.7km/h 7.0mph /  11.3km/h 17% 0.00in /  0mm 659.0 W/m2
16:50 95.0 °F /  35 °C 43.3 °F /  6.3 °C 29.59in /  1001.9hPa ESE 4.0mph /  6.4km/h 8.0mph /  12.9km/h 17% 0.00in /  0mm 650.0 W/m2
16:55 95.2 °F /  35.1 °C 43.5 °F /  6.4 °C 29.59in /  1001.9hPa SE 4.9mph /  7.9km/h 10.0mph /  16.1km/h 17% 0.00in /  0mm 615.0 W/m2
17:00 95.2 °F /  35.1 °C 43.5 °F /  6.4 °C 29.59in /  1001.9hPa SSE 2.9mph /  4.7km/h 12.0mph /  19.3km/h 17% 0.00in /  0mm 606.0 W/m2
17:05 95.2 °F /  35.1 °C 43.5 °F /  6.4 °C 29.58in /  1001.6hPa WSW 0.9mph /  1.4km/h 5.0mph /  8km/h 17% 0.00in /  0mm 571.0 W/m2
17:10 94.8 °F /  34.9 °C 43.2 °F /  6.2 °C 29.59in /  1001.9hPa SW 0.9mph /  1.4km/h 2.0mph /  3.2km/h 17% 0.00in /  0mm 550.0 W/m2
17:15 94.8 °F /  34.9 °C 43.2 °F /  6.2 °C 29.58in /  1001.6hPa Calm   1.0mph /  1.6km/h 17% 0.00in /  0mm 541.0 W/m2
17:24 94.1 °F /  34.5 °C 42.6 °F /  5.9 °C 29.59in /  1001.9hPa SSW 4.0mph /  6.4km/h 7.0mph /  11.3km/h 17% 0.00in /  0mm 501.0 W/m2
17:29 93.6 °F /  34.2 °C 42.3 °F /  5.7 °C 29.59in /  1001.9hPa SE 6.0mph /  9.7km/h 9.0mph /  14.5km/h 17% 0.00in /  0mm 415.0 W/m2
17:36 92.8 °F /  33.8 °C 41.5 °F /  5.3 °C 29.59in /  1001.9hPa SW 2.9mph /  4.7km/h 6.0mph /  9.7km/h 17% 0.00in /  0mm 388.0 W/m2
17:42 93.0 °F /  33.9 °C 41.7 °F /  5.4 °C 29.59in /  1001.9hPa ESE 4.9mph /  7.9km/h 12.0mph /  19.3km/h 17% 0.00in /  0mm 431.0 W/m2
17:47 93.0 °F /  33.9 °C 41.7 °F /  5.4 °C 29.58in /  1001.6hPa ESE 4.0mph /  6.4km/h 9.0mph /  14.5km/h 17% 0.00in /  0mm 413.0 W/m2
17:52 93.4 °F /  34.1 °C 42.1 °F /  5.6 °C 29.59in /  1001.9hPa ENE 6.0mph /  9.7km/h 8.0mph /  12.9km/h 17% 0.00in /  0mm 404.0 W/m2
18:02 93.7 °F /  34.3 °C 42.3 °F /  5.7 °C 29.59in /  1001.9hPa SE 6.9mph /  11.1km/h 9.0mph /  14.5km/h 17% 0.00in /  0mm 352.0 W/m2
18:09 93.7 °F /  34.3 °C 42.3 °F /  5.7 °C 29.59in /  1001.9hPa SSE 6.0mph /  9.7km/h 7.0mph /  11.3km/h 17% 0.00in /  0mm 336.0 W/m2
18:17 93.7 °F /  34.3 °C 42.3 °F /  5.7 °C 29.59in /  1001.9hPa SE 2.0mph /  3.2km/h 8.0mph /  12.9km/h 17% 0.00in /  0mm 292.0 W/m2
18:22 93.7 °F /  34.3 °C 42.3 °F /  5.7 °C 29.59in /  1001.9hPa South 8.9mph /  14.3km/h 10.0mph /  16.1km/h 17% 0.00in /  0mm 176.0 W/m2
18:27 93.4 °F /  34.1 °C 42.1 °F /  5.6 °C 29.59in /  1001.9hPa South 2.9mph /  4.7km/h 6.0mph /  9.7km/h 17% 0.00in /  0mm 255.0 W/m2
18:33 93.4 °F /  34.1 °C 43.5 °F /  6.4 °C 29.59in /  1001.9hPa SE 0.9mph /  1.4km/h 5.0mph /  8km/h 18% 0.00in /  0mm 221.0 W/m2
18:38 93.0 °F /  33.9 °C 41.7 °F /  5.4 °C 29.59in /  1001.9hPa ESE 6.0mph /  9.7km/h 10.0mph /  16.1km/h 17% 0.00in /  0mm 72.0 W/m2
18:43 91.9 °F /  33.3 °C 42.4 °F /  5.8 °C 29.60in /  1002.3hPa SE 6.0mph /  9.7km/h 11.0mph /  17.7km/h 18% 0.00in /  0mm 149.0 W/m2
18:48 91.2 °F /  32.9 °C 41.7 °F /  5.4 °C 29.60in /  1002.3hPa SE 4.9mph /  7.9km/h 11.0mph /  17.7km/h 18% 0.00in /  0mm 58.0 W/m2
18:53 90.7 °F /  32.6 °C 42.8 °F /  6 °C 29.60in /  1002.3hPa SE 6.0mph /  9.7km/h 8.0mph /  12.9km/h 19% 0.00in /  0mm 44.0 W/m2
18:58 90.1 °F /  32.3 °C 42.3 °F /  5.7 °C 29.60in /  1002.3hPa SSE 0.9mph /  1.4km/h 4.0mph /  6.4km/h 19% 0.00in /  0mm 37.0 W/m2
19:03 89.8 °F /  32.1 °C 42.1 °F /  5.6 °C 29.61in /  1002.6hPa ESE 8.1mph /  13km/h 8.1mph /  13km/h 19% 0.00in /  0mm 33.0 W/m2
19:08 89.2 °F /  31.8 °C 41.5 °F /  5.3 °C 29.62in /  1002.9hPa North 2.0mph /  3.2km/h 3.0mph /  4.8km/h 19% 0.00in /  0mm 26.0 W/m2
19:13 88.7 °F /  31.5 °C 49.5 °F /  9.7 °C 29.64in /  1003.6hPa NW 4.9mph /  7.9km/h 12.0mph /  19.3km/h 26% 0.00in /  0mm 18.0 W/m2
19:18 86.7 °F /  30.4 °C 50.7 °F /  10.4 °C 29.64in /  1003.6hPa NW 6.0mph /  9.7km/h 12.0mph /  19.3km/h 29% 0.00in /  0mm 11.0 W/m2
19:32 83.1 °F /  28.4 °C 51.1 °F /  10.6 °C 29.65in /  1003.9hPa North 6.0mph /  9.7km/h 8.0mph /  12.9km/h 33% 0.00in /  0mm 7.0 W/m2
19:38 82.0 °F /  27.8 °C 50.9 °F /  10.5 °C 29.65in /  1003.9hPa NW 8.1mph /  13km/h 15.0mph /  24.1km/h 34% 0.00in /  0mm 0.0 W/m2
19:43 81.0 °F /  27.2 °C 51.4 °F /  10.8 °C 29.65in /  1003.9hPa NNW 6.9mph /  11.1km/h 14.0mph /  22.5km/h 36% 0.00in /  0mm 0.0 W/m2
19:49 80.1 °F /  26.7 °C 51.4 °F /  10.8 °C 29.66in /  1004.3hPa NW 4.9mph /  7.9km/h 14.0mph /  22.5km/h 37% 0.00in /  0mm 0.0 W/m2
19:55 79.5 °F /  26.4 °C 52.3 °F /  11.3 °C 29.66in /  1004.3hPa NW 4.9mph /  7.9km/h 9.0mph /  14.5km/h 39% 0.00in /  0mm 0.0 W/m2
20:00 79.0 °F /  26.1 °C 52.0 °F /  11.1 °C 29.67in /  1004.6hPa NNW 6.0mph /  9.7km/h 12.0mph /  19.3km/h 39% 0.00in /  0mm 0.0 W/m2
20:05 78.3 °F /  25.7 °C 52.7 °F /  11.5 °C 29.67in /  1004.6hPa NW 2.0mph /  3.2km/h 7.0mph /  11.3km/h 41% 0.00in /  0mm 0.0 W/m2
20:10 77.7 °F /  25.4 °C 52.9 °F /  11.6 °C 29.67in /  1004.6hPa NNW 0.9mph /  1.4km/h 8.0mph /  12.9km/h 42% 0.00in /  0mm 0.0 W/m2
20:15 77.4 °F /  25.2 °C 53.1 °F /  11.7 °C 29.68in /  1005hPa NNW 6.0mph /  9.7km/h 6.0mph /  9.7km/h 43% 0.00in /  0mm 0.0 W/m2
20:20 77.2 °F /  25.1 °C 52.9 °F /  11.6 °C 29.69in /  1005.3hPa NNW 4.0mph /  6.4km/h 8.0mph /  12.9km/h 43% 0.00in /  0mm 0.0 W/m2
20:26 76.8 °F /  24.9 °C 53.2 °F /  11.8 °C 29.69in /  1005.3hPa NE 4.0mph /  6.4km/h 4.0mph /  6.4km/h 44% 0.00in /  0mm 0.0 W/m2
20:32 76.5 °F /  24.7 °C 52.9 °F /  11.6 °C 29.69in /  1005.3hPa NW 2.0mph /  3.2km/h 4.0mph /  6.4km/h 44% 0.00in /  0mm 0.0 W/m2
20:37 76.3 °F /  24.6 °C 53.4 °F /  11.9 °C 29.70in /  1005.6hPa North 2.0mph /  3.2km/h 3.0mph /  4.8km/h 45% 0.00in /  0mm 0.0 W/m2
20:42 76.1 °F /  24.5 °C 53.8 °F /  12.1 °C 29.69in /  1005.3hPa NNE 4.0mph /  6.4km/h 4.0mph /  6.4km/h 46% 0.00in /  0mm 0.0 W/m2
20:49 75.9 °F /  24.4 °C 54.3 °F /  12.4 °C 29.69in /  1005.3hPa Calm   3.0mph /  4.8km/h 47% 0.00in /  0mm 0.0 W/m2
20:54 75.9 °F /  24.4 °C 54.3 °F /  12.4 °C 29.69in /  1005.3hPa Calm     47% 0.00in /  0mm 0.0 W/m2
21:04 75.7 °F /  24.3 °C 54.7 °F /  12.6 °C 29.70in /  1005.6hPa Calm   1.0mph /  1.6km/h 48% 0.00in /  0mm 0.0 W/m2
21:09 75.7 °F /  24.3 °C 54.7 °F /  12.6 °C 29.70in /  1005.6hPa Calm   1.0mph /  1.6km/h 48% 0.00in /  0mm 0.0 W/m2
21:14 75.7 °F /  24.3 °C 54.7 °F /  12.6 °C 29.70in /  1005.6hPa NW 0.9mph /  1.4km/h 2.0mph /  3.2km/h 48% 0.00in /  0mm 0.0 W/m2
21:21 75.6 °F /  24.2 °C 54.5 °F /  12.5 °C 29.70in /  1005.6hPa Calm   1.0mph /  1.6km/h 48% 0.00in /  0mm 0.0 W/m2
21:26 75.6 °F /  24.2 °C 54.5 °F /  12.5 °C 29.70in /  1005.6hPa Calm     48% 0.00in /  0mm 0.0 W/m2
21:31 75.6 °F /  24.2 °C 54.5 °F /  12.5 °C 29.70in /  1005.6hPa Calm     48% 0.00in /  0mm 0.0 W/m2
21:36 75.4 °F /  24.1 °C 54.9 °F /  12.7 °C 29.70in /  1005.6hPa Calm   1.0mph /  1.6km/h 49% 0.00in /  0mm 0.0 W/m2
21:41 75.2 °F /  24 °C 54.7 °F /  12.6 °C 29.70in /  1005.6hPa Calm     49% 0.00in /  0mm 0.0 W/m2
21:46 75.0 °F /  23.9 °C 54.5 °F /  12.5 °C 29.70in /  1005.6hPa Calm     49% 0.00in /  0mm 0.0 W/m2
21:56 74.8 °F /  23.8 °C 55.0 °F /  12.8 °C 29.70in /  1005.6hPa Calm     50% 0.00in /  0mm 0.0 W/m2
22:01 74.7 °F /  23.7 °C 54.9 °F /  12.7 °C 29.70in /  1005.6hPa Calm     50% 0.00in /  0mm 0.0 W/m2
22:06 74.7 °F /  23.7 °C 54.9 °F /  12.7 °C 29.70in /  1005.6hPa Calm     50% 0.00in /  0mm 0.0 W/m2
22:11 74.5 °F /  23.6 °C 54.7 °F /  12.6 °C 29.71in /  1006hPa Calm     50% 0.00in /  0mm 0.0 W/m2
22:17 74.3 °F /  23.5 °C 55.0 °F /  12.8 °C 29.71in /  1006hPa Calm     51% 0.00in /  0mm 0.0 W/m2
22:22 74.1 °F /  23.4 °C 54.9 °F /  12.7 °C 29.71in /  1006hPa Calm     51% 0.00in /  0mm 0.0 W/m2
22:27 74.1 °F /  23.4 °C 54.3 °F /  12.4 °C 29.71in /  1006hPa Calm   1.0mph /  1.6km/h 50% 0.00in /  0mm 0.0 W/m2
22:32 74.1 °F /  23.4 °C 54.3 °F /  12.4 °C 29.71in /  1006hPa Calm   1.0mph /  1.6km/h 50% 0.00in /  0mm 0.0 W/m2
22:37 74.3 °F /  23.5 °C 54.5 °F /  12.5 °C 29.71in /  1006hPa Calm   1.0mph /  1.6km/h 50% 0.00in /  0mm 0.0 W/m2
22:42 74.3 °F /  23.5 °C 54.5 °F /  12.5 °C 29.72in /  1006.3hPa Calm   2.0mph /  3.2km/h 50% 0.00in /  0mm 0.0 W/m2
22:46 74.3 °F /  23.5 °C 54.5 °F /  12.5 °C 29.72in /  1006.3hPa Calm   2.0mph /  3.2km/h 50% 0.00in /  0mm 0.0 W/m2
22:48 74.3 °F /  23.5 °C 54.5 °F /  12.5 °C 29.72in /  1006.3hPa Calm     50% 0.00in /  0mm 0.0 W/m2
22:49 74.3 °F /  23.5 °C 54.5 °F /  12.5 °C 29.72in /  1006.3hPa WSW 2.0mph /  3.2km/h 2.0mph /  3.2km/h 50% 0.00in /  0mm 0.0 W/m2
22:51 74.3 °F /  23.5 °C 54.5 °F /  12.5 °C 29.72in /  1006.3hPa Calm   1.0mph /  1.6km/h 50% 0.00in /  0mm 0.0 W/m2
22:53 74.3 °F /  23.5 °C 54.5 °F /  12.5 °C 29.72in /  1006.3hPa Calm     50% 0.00in /  0mm 0.0 W/m2
22:54 74.3 °F /  23.5 °C 54.5 °F /  12.5 °C 29.72in /  1006.3hPa Calm     50% 0.00in /  0mm 0.0 W/m2
22:55 74.3 °F /  23.5 °C 54.5 °F /  12.5 °C 29.72in /  1006.3hPa Calm     50% 0.00in /  0mm 0.0 W/m2
22:56 74.3 °F /  23.5 °C 54.5 °F /  12.5 °C 29.72in /  1006.3hPa Calm     50% 0.00in /  0mm 0.0 W/m2
22:58 74.3 °F /  23.5 °C 54.5 °F /  12.5 °C 29.72in /  1006.3hPa Calm   2.0mph /  3.2km/h 50% 0.00in /  0mm 0.0 W/m2
23:02 74.3 °F /  23.5 °C 54.5 °F /  12.5 °C 29.72in /  1006.3hPa Calm   1.0mph /  1.6km/h 50% 0.00in /  0mm 0.0 W/m2
23:08 74.1 °F /  23.4 °C 54.3 °F /  12.4 °C 29.72in /  1006.3hPa Calm   1.0mph /  1.6km/h 50% 0.00in /  0mm 0.0 W/m2
23:11 74.3 °F /  23.5 °C 54.5 °F /  12.5 °C 29.72in /  1006.3hPa Calm   1.0mph /  1.6km/h 50% 0.00in /  0mm 0.0 W/m2
23:16 74.1 °F /  23.4 °C 54.3 °F /  12.4 °C 29.73in /  1006.7hPa WSW 0.9mph /  1.4km/h 1.0mph /  1.6km/h 50% 0.00in /  0mm 0.0 W/m2
23:21 74.1 °F /  23.4 °C 54.3 °F /  12.4 °C 29.73in /  1006.7hPa WSW 2.0mph /  3.2km/h 5.0mph /  8km/h 50% 0.00in /  0mm 0.0 W/m2
23:27 74.1 °F /  23.4 °C 54.3 °F /  12.4 °C 29.74in /  1007hPa Calm   1.0mph /  1.6km/h 50% 0.00in /  0mm 0.0 W/m2
23:28 74.1 °F /  23.4 °C 54.3 °F /  12.4 °C 29.74in /  1007hPa Calm     50% 0.00in /  0mm 0.0 W/m2
23:34 74.1 °F /  23.4 °C 54.3 °F /  12.4 °C 29.75in /  1007.3hPa NNW 0.9mph /  1.4km/h 2.0mph /  3.2km/h 50% 0.00in /  0mm 0.0 W/m2
23:39 74.1 °F /  23.4 °C 54.3 °F /  12.4 °C 29.75in /  1007.3hPa Calm   1.0mph /  1.6km/h 50% 0.00in /  0mm 0.0 W/m2
23:45 74.1 °F /  23.4 °C 54.3 °F /  12.4 °C 29.74in /  1007hPa Calm     50% 0.00in /  0mm 0.0 W/m2
23:49 73.9 °F /  23.3 °C 54.1 °F /  12.3 °C 29.74in /  1007hPa Calm     50% 0.00in /  0mm 0.0 W/m2
23:55 73.8 °F /  23.2 °C 54.0 °F /  12.2 °C 29.73in /  1006.7hPa Calm     50% 0.00in /  0mm 0.0 W/m2
Olympia, Windhoek, Namibia
Compliments of Weather Underground - 3.25 mb